createdAt,value
2018-09-19T00:01:52.594Z,82.31
2018-09-19T00:04:57.534Z,83.19
2018-09-19T00:08:02.135Z,82.72
2018-09-19T00:11:07.019Z,82.98
2018-09-19T00:14:12.139Z,83.98
2018-09-19T00:17:16.909Z,83.92
2018-09-19T00:20:22.589Z,83.47
2018-09-19T00:23:27.067Z,83.33
2018-09-19T00:26:31.809Z,84.18
2018-09-19T00:29:36.357Z,84.41
2018-09-19T00:32:41.029Z,83.81
2018-09-19T00:35:45.651Z,84.60
2018-09-19T00:38:50.236Z,84.71
2018-09-19T00:41:56.414Z,84.72
2018-09-19T00:45:01.003Z,85.54
2018-09-19T00:48:05.611Z,85.89
2018-09-19T00:51:10.320Z,86.03
2018-09-19T00:54:15.010Z,85.96
2018-09-19T00:57:19.714Z,86.61
2018-09-19T01:00:24.334Z,86.43
2018-09-19T01:03:29.003Z,86.54
2018-09-19T01:06:33.684Z,86.15
2018-09-19T01:09:38.431Z,86.87
2018-09-19T01:12:43.045Z,87.27
2018-09-19T01:15:47.676Z,87.20
2018-09-19T01:18:52.525Z,87.22
2018-09-19T01:21:57.202Z,87.39
2018-09-19T01:25:01.927Z,87.93
2018-09-19T01:28:06.555Z,88.07
2018-09-19T01:31:11.182Z,88.17
2018-09-19T01:34:15.992Z,88.53
2018-09-19T01:37:20.606Z,88.02
2018-09-19T01:40:25.426Z,88.64
2018-09-19T01:43:30.045Z,88.85
2018-09-19T01:46:35.098Z,89.07
2018-09-19T01:49:39.797Z,89.77
2018-09-19T01:52:44.644Z,89.69
2018-09-19T01:55:49.384Z,90.47
2018-09-19T01:58:54.001Z,89.70
2018-09-19T02:01:58.597Z,89.59
2018-09-19T02:05:03.264Z,90.68
2018-09-19T02:08:08.026Z,90.08
2018-09-19T02:11:12.820Z,90.33
2018-09-19T02:14:17.414Z,90.61
2018-09-19T02:17:22.099Z,91.11
2018-09-19T02:20:26.852Z,91.17
2018-09-19T02:23:31.523Z,91.21
2018-09-19T02:26:36.260Z,90.33
2018-09-19T02:29:40.990Z,90.60
2018-09-19T02:32:45.967Z,91.73
2018-09-19T02:35:50.542Z,91.89
2018-09-19T02:38:57.240Z,91.39
2018-09-19T02:42:02.123Z,91.37
2018-09-19T02:45:06.886Z,91.92
2018-09-19T02:48:11.540Z,92.18
2018-09-19T02:51:17.033Z,92.61
2018-09-19T02:54:21.787Z,91.96
2018-09-19T02:57:26.462Z,92.57
2018-09-19T03:00:31.219Z,92.54
2018-09-19T03:03:36.028Z,91.57
2018-09-19T03:06:40.716Z,92.41
2018-09-19T03:09:45.398Z,92.02
2018-09-19T03:12:50.415Z,92.41
2018-09-19T03:15:55.008Z,91.98
2018-09-19T03:18:59.614Z,92.73
2018-09-19T03:22:04.425Z,92.73
2018-09-19T03:25:09.005Z,92.43
2018-09-19T03:28:13.603Z,92.21
2018-09-19T03:31:18.301Z,92.17
2018-09-19T03:34:22.941Z,92.07
2018-09-19T03:37:27.702Z,92.44
2018-09-19T03:40:32.797Z,92.92
2018-09-19T03:43:37.341Z,92.09
2018-09-19T03:46:42.079Z,91.96
2018-09-19T03:49:46.689Z,92.24
2018-09-19T03:52:51.328Z,93.08
2018-09-19T03:55:56.118Z,92.46
2018-09-19T03:59:00.724Z,92.47
2018-09-19T04:02:05.382Z,93.06
2018-09-19T04:05:10.127Z,92.93
2018-09-19T04:08:14.761Z,92.82
2018-09-19T04:11:19.390Z,93.40
2018-09-19T04:14:23.962Z,93.32
2018-09-19T04:17:28.674Z,93.19
2018-09-19T04:20:33.442Z,93.02
2018-09-19T04:23:38.002Z,93.14
2018-09-19T04:26:42.606Z,93.67
2018-09-19T04:29:47.168Z,93.27
2018-09-19T04:32:51.801Z,93.14
2018-09-19T04:35:56.397Z,93.53
2018-09-19T04:39:00.949Z,94.63
2018-09-19T04:42:05.592Z,94.17
2018-09-19T04:45:10.247Z,94.66
2018-09-19T04:48:14.940Z,94.95
2018-09-19T04:51:19.793Z,93.96
2018-09-19T04:54:24.508Z,94.71
2018-09-19T04:57:29.173Z,94.86
2018-09-19T05:00:33.763Z,95.04
2018-09-19T05:03:38.420Z,94.78
2018-09-19T05:06:43.174Z,94.85
2018-09-19T05:09:47.759Z,95.00
2018-09-19T05:12:52.383Z,94.50
2018-09-19T05:15:56.989Z,93.68
2018-09-19T05:19:01.638Z,94.48
2018-09-19T05:22:06.232Z,94.71
2018-09-19T05:25:10.868Z,94.95
2018-09-19T05:28:15.784Z,94.47
2018-09-19T05:31:20.344Z,93.92
2018-09-19T05:34:25.031Z,93.28
2018-09-19T05:37:29.587Z,90.00
2018-09-19T05:40:34.219Z,88.93
2018-09-19T05:43:38.961Z,88.65
2018-09-19T05:46:43.593Z,88.11
2018-09-19T05:49:48.301Z,88.19
2018-09-19T05:52:53.173Z,87.59
2018-09-19T05:55:57.832Z,86.43
2018-09-19T05:59:02.469Z,85.75
2018-09-19T06:02:07.192Z,85.76
2018-09-19T06:05:11.907Z,85.21
2018-09-19T06:08:16.841Z,85.43
2018-09-19T06:11:21.603Z,86.37
2018-09-19T06:14:26.173Z,85.81
2018-09-19T06:17:31.184Z,84.74
2018-09-19T06:20:35.821Z,84.84
2018-09-19T06:23:40.463Z,84.22
2018-09-19T06:26:45.108Z,84.58
2018-09-19T06:29:49.692Z,84.16
2018-09-19T06:32:54.369Z,83.69
2018-09-19T06:35:58.888Z,82.03
2018-09-19T06:39:03.897Z,81.41
2018-09-19T06:42:08.564Z,80.98
2018-09-19T06:45:13.165Z,81.70
2018-09-19T06:48:17.828Z,80.32
2018-09-19T06:51:22.661Z,79.95
2018-09-19T06:54:27.373Z,78.71
2018-09-19T06:57:32.105Z,78.08
2018-09-19T07:00:36.742Z,76.19
2018-09-19T07:03:41.547Z,77.64
2018-09-19T07:06:46.165Z,76.47
2018-09-19T07:09:50.750Z,75.07
2018-09-19T07:12:55.355Z,75.15
2018-09-19T07:15:59.967Z,76.37
2018-09-19T07:19:04.764Z,75.29
2018-09-19T07:22:09.462Z,73.60
2018-09-19T07:25:14.112Z,73.08
2018-09-19T07:28:18.791Z,73.06
2018-09-19T07:31:23.356Z,72.62
2018-09-19T07:34:28.186Z,70.71
2018-09-19T07:37:32.781Z,71.44
2018-09-19T07:40:37.471Z,72.04
2018-09-19T07:43:42.407Z,71.03
2018-09-19T07:46:47.114Z,69.69
2018-09-19T07:49:51.835Z,69.89
2018-09-19T07:52:56.488Z,70.19
2018-09-19T07:56:01.201Z,69.04
2018-09-19T07:59:05.792Z,67.61
2018-09-19T08:02:10.754Z,67.80
2018-09-19T08:05:15.490Z,66.36
2018-09-19T08:08:20.440Z,66.91
2018-09-19T08:11:25.072Z,65.78
2018-09-19T08:14:29.693Z,65.34
2018-09-19T08:17:34.227Z,63.17
2018-09-19T08:20:38.944Z,63.42
2018-09-19T08:23:43.541Z,62.71
2018-09-19T08:26:48.167Z,61.88
2018-09-19T08:29:52.915Z,61.62
2018-09-19T08:32:57.744Z,61.14
2018-09-19T08:36:02.404Z,61.23
2018-09-19T08:39:09.788Z,61.63
2018-09-19T08:42:14.477Z,62.24
2018-09-19T08:45:19.437Z,60.37
2018-09-19T08:48:24.275Z,58.59
2018-09-19T08:51:28.876Z,58.22
2018-09-19T08:54:33.651Z,56.99
2018-09-19T08:57:38.315Z,57.79
2018-09-19T09:00:43.024Z,55.79
2018-09-19T09:03:47.718Z,54.99
2018-09-19T09:06:52.443Z,54.25
2018-09-19T09:09:57.064Z,53.82
2018-09-19T09:13:01.772Z,54.16
2018-09-19T09:16:06.636Z,51.11
2018-09-19T09:19:11.261Z,49.06
2018-09-19T09:22:15.895Z,48.54
2018-09-19T09:25:20.614Z,47.64
2018-09-19T09:28:25.279Z,47.85
2018-09-19T09:31:30.070Z,46.77
2018-09-19T09:34:34.670Z,46.39
2018-09-19T09:37:39.498Z,46.14
2018-09-19T09:40:44.080Z,45.94
2018-09-19T09:43:48.640Z,44.59
2018-09-19T09:46:53.298Z,44.86
2018-09-19T09:49:57.954Z,43.79
2018-09-19T09:53:02.696Z,43.17
2018-09-19T09:56:07.653Z,41.93
2018-09-19T09:59:12.360Z,42.22
2018-09-19T10:02:17.247Z,44.06
2018-09-19T10:05:22.299Z,43.78
2018-09-19T10:08:35.236Z,42.98
2018-09-19T10:11:40.671Z,43.24
2018-09-19T10:14:45.307Z,41.79
2018-09-19T10:17:49.967Z,41.15
2018-09-19T10:21:37.557Z,41.15
2018-09-19T10:24:42.352Z,41.63
2018-09-19T10:27:47.147Z,41.10
2018-09-19T10:30:51.759Z,42.24
2018-09-19T10:33:56.470Z,41.25
2018-09-19T10:37:01.321Z,42.21
2018-09-19T10:40:06.874Z,41.38
2018-09-19T10:43:11.524Z,40.94
2018-09-19T10:46:16.736Z,42.08
2018-09-19T10:49:21.578Z,40.66
2018-09-19T10:52:51.366Z,41.12
2018-09-19T10:55:56.539Z,40.68
2018-09-19T10:59:01.805Z,39.25
2018-09-19T11:02:06.715Z,39.58
2018-09-19T11:05:11.612Z,39.12
2018-09-19T11:08:16.620Z,38.49
2018-09-19T11:11:21.921Z,38.78
2018-09-19T11:14:26.507Z,38.06
2018-09-19T11:17:31.323Z,36.77
2018-09-19T11:20:35.852Z,36.93
2018-09-19T11:23:41.688Z,36.34
2018-09-19T11:26:46.486Z,37.80
2018-09-19T11:29:51.202Z,36.54
2018-09-19T11:32:55.813Z,35.92
2018-09-19T11:36:00.427Z,36.30
2018-09-19T11:39:08.533Z,36.35
2018-09-19T11:42:13.462Z,35.61
2018-09-19T11:45:18.013Z,34.67
2018-09-19T11:48:22.727Z,34.17
2018-09-19T11:51:27.347Z,35.01
2018-09-19T11:54:32.027Z,34.59
2018-09-19T11:57:36.676Z,33.87
2018-09-19T12:00:41.285Z,33.18
2018-09-19T12:03:45.828Z,34.33
2018-09-19T12:06:50.772Z,33.40
2018-09-19T12:09:55.455Z,32.66
2018-09-19T12:13:00.080Z,33.21
2018-09-19T12:16:04.761Z,32.55
2018-09-19T12:19:09.488Z,34.23
2018-09-19T12:22:14.142Z,32.91
2018-09-19T12:25:18.755Z,31.57
2018-09-19T12:28:23.364Z,31.77
2018-09-19T12:31:28.132Z,33.20
2018-09-19T12:34:32.695Z,32.07
2018-09-19T12:37:37.517Z,32.66
2018-09-19T12:40:42.179Z,32.99
2018-09-19T12:43:46.848Z,33.93
2018-09-19T12:46:51.466Z,33.52
2018-09-19T12:49:56.016Z,33.57
2018-09-19T12:53:01.887Z,32.85
2018-09-19T12:56:06.526Z,33.59
2018-09-19T12:59:11.284Z,31.73
2018-09-19T13:02:15.824Z,32.46
2018-09-19T13:05:20.470Z,32.70
2018-09-19T13:08:25.074Z,33.36
2018-09-19T13:11:29.741Z,33.12
2018-09-19T13:14:34.414Z,32.28
2018-09-19T13:17:39.136Z,32.20
2018-09-19T13:20:44.344Z,31.52
2018-09-19T13:23:49.021Z,31.58
2018-09-19T13:26:53.857Z,33.45
2018-09-19T13:29:58.457Z,33.72
2018-09-19T13:33:03.267Z,33.27
2018-09-19T13:36:07.900Z,32.78
2018-09-19T13:39:13.467Z,31.21
2018-09-19T13:42:18.088Z,32.21
2018-09-19T13:45:22.704Z,32.08
2018-09-19T13:48:27.940Z,31.73
2018-09-19T13:51:32.507Z,31.57
2018-09-19T13:54:37.209Z,31.19
2018-09-19T13:57:41.847Z,31.56
2018-09-19T14:00:46.395Z,30.75
2018-09-19T14:03:51.146Z,31.41
2018-09-19T14:06:55.863Z,32.56
2018-09-19T14:10:00.420Z,33.06
2018-09-19T14:13:47.417Z,33.33
2018-09-19T14:16:52.098Z,31.64
2018-09-19T14:19:56.645Z,31.54
2018-09-19T14:23:01.355Z,31.80
2018-09-19T14:26:06.106Z,31.00
2018-09-19T14:29:10.766Z,31.34
2018-09-19T14:32:15.389Z,32.81
2018-09-19T14:35:20.220Z,30.75
2018-09-19T14:38:25.010Z,31.54
2018-09-19T14:41:29.756Z,31.33
2018-09-19T14:44:34.308Z,31.22
2018-09-19T14:47:38.978Z,31.89
2018-09-19T14:50:44.459Z,30.62
2018-09-19T14:53:49.143Z,31.88
2018-09-19T14:56:53.816Z,30.91
2018-09-19T14:59:58.489Z,32.06
2018-09-19T15:03:03.191Z,31.57
2018-09-19T15:06:08.005Z,32.11
2018-09-19T15:09:12.747Z,32.44
2018-09-19T15:12:17.411Z,32.37
2018-09-19T15:15:22.122Z,33.11
2018-09-19T15:18:26.841Z,33.06
2018-09-19T15:21:31.982Z,33.46
2018-09-19T15:24:36.697Z,34.50
2018-09-19T15:27:41.228Z,34.52
2018-09-19T15:30:45.859Z,34.31
2018-09-19T15:33:50.483Z,34.32
2018-09-19T15:36:55.216Z,35.43
2018-09-19T15:39:59.980Z,34.99
2018-09-19T15:43:04.579Z,35.55
2018-09-19T15:46:09.218Z,37.22
2018-09-19T15:49:14.110Z,36.88
2018-09-19T15:52:18.763Z,36.93
2018-09-19T15:55:23.733Z,35.62
2018-09-19T15:58:28.577Z,36.71
2018-09-19T16:01:33.519Z,36.80
2018-09-19T16:04:38.268Z,36.65
2018-09-19T16:07:43.187Z,38.30
2018-09-19T16:10:48.415Z,38.39
2018-09-19T16:13:53.527Z,39.03
2018-09-19T16:16:58.525Z,39.77
2018-09-19T16:20:03.629Z,40.90
2018-09-19T16:23:08.563Z,40.71
2018-09-19T16:26:13.691Z,40.87
2018-09-19T16:29:18.672Z,38.71
2018-09-19T16:32:23.584Z,38.48
2018-09-19T16:35:28.541Z,38.70
2018-09-19T16:38:34.179Z,39.14
2018-09-19T16:41:38.813Z,40.80
2018-09-19T16:44:43.547Z,40.44
2018-09-19T16:47:48.278Z,41.04
2018-09-19T16:50:53.263Z,41.42
2018-09-19T16:53:59.458Z,43.36
2018-09-19T16:57:04.307Z,42.39
2018-09-19T17:00:09.641Z,44.13
2018-09-19T17:03:14.974Z,43.05
2018-09-19T17:06:19.736Z,43.58
2018-09-19T17:09:24.396Z,43.40
2018-09-19T17:12:29.089Z,44.29
2018-09-19T17:15:33.833Z,43.99
2018-09-19T17:18:38.361Z,44.15
2018-09-19T17:21:42.916Z,44.78
2018-09-19T17:24:47.667Z,46.06
2018-09-19T17:27:52.244Z,46.78
2018-09-19T17:30:57.255Z,47.31
2018-09-19T17:34:01.882Z,47.48
2018-09-19T17:37:06.813Z,48.59
2018-09-19T17:40:11.516Z,49.18
2018-09-19T17:43:16.145Z,49.77
2018-09-19T17:46:21.013Z,51.29
2018-09-19T17:49:25.729Z,51.71
2018-09-19T17:52:30.509Z,52.04
2018-09-19T17:55:35.185Z,52.52
2018-09-19T17:58:39.845Z,53.66
2018-09-19T18:01:44.689Z,53.25
2018-09-19T18:04:49.401Z,52.88
2018-09-19T18:07:54.065Z,53.85
2018-09-19T18:10:58.955Z,54.51
2018-09-19T18:14:03.834Z,55.57
2018-09-19T18:17:08.633Z,56.00
2018-09-19T18:20:13.492Z,55.80
2018-09-19T18:23:18.437Z,56.67
2018-09-19T18:26:23.344Z,56.55
2018-09-19T18:29:28.080Z,56.66
2018-09-19T18:32:33.199Z,57.26
2018-09-19T18:35:38.083Z,56.97
2018-09-19T18:38:42.775Z,58.08
2018-09-19T18:41:47.928Z,58.25
2018-09-19T18:44:52.989Z,57.47
2018-09-19T18:47:57.684Z,58.51
2018-09-19T18:51:02.526Z,58.81
2018-09-19T18:54:07.277Z,58.63
2018-09-19T18:57:12.215Z,58.38
2018-09-19T19:00:17.438Z,58.95
2018-09-19T19:03:22.100Z,59.87
2018-09-19T19:06:27.137Z,59.67
2018-09-19T19:09:31.758Z,60.55
2018-09-19T19:12:36.444Z,61.12
2018-09-19T19:15:41.234Z,61.12
2018-09-19T19:18:46.112Z,61.28
2018-09-19T19:21:50.925Z,61.98
2018-09-19T19:24:55.504Z,62.64
2018-09-19T19:28:00.332Z,62.08
2018-09-19T19:31:04.881Z,61.22
2018-09-19T19:34:09.480Z,61.98
2018-09-19T19:37:14.385Z,62.17
2018-09-19T19:40:19.029Z,63.25
2018-09-19T19:43:23.658Z,64.01
2018-09-19T19:46:28.542Z,64.46
2018-09-19T19:49:33.176Z,63.85
2018-09-19T19:52:38.069Z,64.05
2018-09-19T19:55:42.683Z,64.68
2018-09-19T19:58:47.427Z,65.93
2018-09-19T20:01:52.069Z,65.97
2018-09-19T20:04:57.695Z,66.12
2018-09-19T20:08:02.314Z,65.67
2018-09-19T20:11:07.471Z,65.54
2018-09-19T20:14:12.213Z,65.35
2018-09-19T20:17:17.594Z,65.59
2018-09-19T20:20:22.680Z,66.39
2018-09-19T20:23:27.428Z,66.89
2018-09-19T20:26:32.053Z,67.04
2018-09-19T20:29:36.670Z,66.70
2018-09-19T20:32:41.373Z,67.52
2018-09-19T20:35:46.231Z,68.30
2018-09-19T20:38:50.965Z,68.16
2018-09-19T20:41:57.598Z,68.15
2018-09-19T20:45:02.415Z,68.56
2018-09-19T20:48:07.058Z,68.97
2018-09-19T20:51:11.856Z,69.37
2018-09-19T20:54:16.966Z,69.64
2018-09-19T20:57:21.734Z,70.07
2018-09-19T21:00:26.311Z,70.07
2018-09-19T21:03:31.252Z,70.53
2018-09-19T21:06:35.861Z,70.26
2018-09-19T21:09:40.539Z,70.29
2018-09-19T21:12:45.119Z,70.54
2018-09-19T21:15:49.804Z,71.24
2018-09-19T21:18:54.461Z,70.56
2018-09-19T21:21:59.115Z,71.43
2018-09-19T21:25:03.740Z,71.32
2018-09-19T21:28:08.419Z,72.31
2018-09-19T21:31:12.987Z,72.18
2018-09-19T21:34:18.061Z,72.63
2018-09-19T21:37:22.902Z,72.16
2018-09-19T21:40:27.803Z,72.14
2018-09-19T21:43:32.365Z,72.36
2018-09-19T21:46:37.131Z,73.43
2018-09-19T21:49:41.766Z,73.27
2018-09-19T21:52:46.589Z,74.32
2018-09-19T21:55:51.289Z,74.62
2018-09-19T21:58:55.912Z,74.72
2018-09-19T22:02:01.588Z,74.04
2018-09-19T22:05:06.283Z,75.00
2018-09-19T22:08:10.979Z,75.46
2018-09-19T22:11:15.544Z,75.58
2018-09-19T22:14:20.541Z,75.72
2018-09-19T22:17:26.317Z,75.37
2018-09-19T22:20:30.969Z,75.27
2018-09-19T22:23:35.625Z,75.87
2018-09-19T22:26:40.505Z,76.28
2018-09-19T22:29:45.415Z,76.54
2018-09-19T22:32:50.406Z,76.28
2018-09-19T22:35:55.470Z,76.00
2018-09-19T22:39:00.152Z,76.60
2018-09-19T22:42:04.837Z,77.04
2018-09-19T22:45:09.572Z,76.12
2018-09-19T22:48:14.202Z,77.27
2018-09-19T22:51:19.035Z,76.63
2018-09-19T22:54:23.742Z,77.35
2018-09-19T22:57:28.390Z,77.54
2018-09-19T23:00:33.276Z,77.71
2018-09-19T23:03:38.218Z,77.40
2018-09-19T23:06:42.795Z,78.05
2018-09-19T23:09:47.342Z,78.72
2018-09-19T23:12:52.075Z,79.37
2018-09-19T23:15:56.817Z,78.62
2018-09-19T23:19:01.665Z,78.92
2018-09-19T23:22:06.439Z,79.53
2018-09-19T23:25:11.141Z,79.46
2018-09-19T23:28:15.776Z,79.24
2018-09-19T23:31:20.512Z,79.76
2018-09-19T23:34:25.407Z,79.34
2018-09-19T23:37:30.120Z,80.36
2018-09-19T23:40:35.624Z,80.68
2018-09-19T23:43:40.350Z,80.20
2018-09-19T23:46:44.973Z,81.64
2018-09-19T23:49:49.528Z,81.24
2018-09-19T23:52:54.221Z,81.17
2018-09-19T23:55:58.987Z,80.91
2018-09-19T23:59:03.547Z,82.04
